Time;durP1;ratioP1;P1;durP2;ratioP2;P2;SDS_P1;SDS_P2;PMS_P1;PMS_P2;Temp;Humidity;BMP_temperature;BMP_pressure;BME280_temperature;BME280_humidity;BME280_pressure;Samples;Min_cycle;Max_cycle;Signal;HPM_P1;HPM_P2
2023/07/20 00:00:57;;;;;;;2.43;2.23;;;;;;;;;;5069104;28;20181;-54
2023/07/20 00:03:25;;;;;;;3.00;2.70;;;;;;;;;;5056603;28;20175;-53
2023/07/20 00:05:51;;;;;;;3.50;2.90;;;;;;;;;;5064670;28;20287;-54
2023/07/20 00:08:18;;;;;;;3.03;2.60;;;;;;;;;;5070027;28;20222;-53
2023/07/20 00:10:44;;;;;;;3.13;2.40;;;;;;;;;;5061540;28;20181;-53
2023/07/20 00:13:15;;;;;;;2.60;2.40;;;;;;;;;;5070341;28;20617;-53
2023/07/20 00:15:41;;;;;;;2.80;2.47;;;;;;;;;;5059384;28;20660;-54
2023/07/20 00:18:07;;;;;;;2.97;2.77;;;;;;;;;;5066479;28;20181;-53
2023/07/20 00:20:33;;;;;;;3.77;2.53;;;;;;;;;;5068796;28;20766;-54
2023/07/20 00:23:00;;;;;;;3.17;2.87;;;;;;;;;;5060358;28;20651;-53
2023/07/20 00:25:26;;;;;;;2.97;2.60;;;;;;;;;;5066817;28;20204;-53
2023/07/20 00:27:52;;;;;;;2.70;2.50;;;;;;;;;;5055292;28;20211;-53
2023/07/20 00:30:18;;;;;;;2.57;2.37;;;;;;;;;;5063002;28;20621;-54
2023/07/20 00:32:47;;;;;;;2.77;2.57;;;;;;;;;;5064748;28;20288;-53
2023/07/20 00:35:14;;;;;;;3.20;2.60;;;;;;;;;;5065991;28;20171;-53
2023/07/20 00:37:40;;;;;;;2.83;2.53;;;;;;;;;;5063666;28;20550;-53
2023/07/20 00:40:07;;;;;;;3.10;2.40;;;;;;;;;;5064697;28;20637;-54
2023/07/20 00:42:33;;;;;;;2.90;2.70;;;;;;;;;;5065414;28;20242;-54
2023/07/20 00:45:00;;;;;;;2.87;2.67;;;;;;;;;;5054498;28;20192;-53
2023/07/20 00:47:26;;;;;;;3.63;2.70;;;;;;;;;;5056044;28;20248;-54
2023/07/20 00:49:53;;;;;;;2.97;2.67;;;;;;;;;;5066577;28;20192;-54
2023/07/20 00:52:19;;;;;;;2.63;2.43;;;;;;;;;;5065053;28;20540;-53
2023/07/20 00:54:45;;;;;;;3.23;2.70;;;;;;;;;;5058214;28;20241;-54
2023/07/20 00:57:13;;;;;;;2.70;2.50;;;;;;;;;;5058585;28;20180;-54
2023/07/20 00:59:39;;;;;;;3.30;3.03;;;;;;;;;;5069431;28;20237;-54
2023/07/20 01:02:05;;;;;;;2.67;2.47;;;;;;;;;;5068322;28;20649;-54
2023/07/20 01:04:31;;;;;;;3.20;2.70;;;;;;;;;;5061490;28;20666;-53
2023/07/20 01:06:57;;;;;;;2.53;2.30;;;;;;;;;;5067697;28;20574;-53
2023/07/20 01:09:28;;;;;;;2.90;2.47;;;;;;;;;;5059133;28;20194;-54
2023/07/20 01:11:54;;;;;;;3.43;3.10;;;;;;;;;;5057321;28;20187;-53
2023/07/20 01:14:20;;;;;;;3.33;2.80;;;;;;;;;;5069771;28;20214;-54
2023/07/20 01:16:48;;;;;;;2.80;2.60;;;;;;;;;;5066929;28;20183;-54
2023/07/20 01:19:14;;;;;;;2.70;2.50;;;;;;;;;;5064630;28;20183;-54
2023/07/20 01:21:46;;;;;;;3.10;2.80;;;;;;;;;;5066026;28;20179;-53
2023/07/20 01:24:27;;;;;;;3.20;2.90;;;;;;;;;;5065567;28;20182;-54
2023/07/20 01:27:11;;;;;;;2.80;2.60;;;;;;;;;;5065113;28;20189;-53
2023/07/20 01:29:43;;;;;;;3.43;2.93;;;;;;;;;;5061358;28;20175;-54
2023/07/20 01:32:10;;;;;;;3.07;2.60;;;;;;;;;;5052906;28;20256;-53
2023/07/20 01:34:36;;;;;;;2.73;2.50;;;;;;;;;;5063814;28;20191;-53
2023/07/20 01:37:04;;;;;;;3.03;2.77;;;;;;;;;;5066386;28;20182;-54
2023/07/20 01:39:30;;;;;;;3.50;3.20;;;;;;;;;;5069103;28;20402;-52
2023/07/20 01:41:57;;;;;;;2.70;2.50;;;;;;;;;;5053604;28;20189;-52
2023/07/20 01:44:23;;;;;;;3.23;2.83;;;;;;;;;;5056535;28;20197;-52
2023/07/20 01:46:49;;;;;;;3.40;3.10;;;;;;;;;;5059836;28;20186;-52
2023/07/20 01:49:15;;;;;;;3.97;3.13;;;;;;;;;;5066388;28;20261;-53
2023/07/20 01:51:41;;;;;;;3.53;3.13;;;;;;;;;;5060862;28;20175;-53
2023/07/20 01:54:08;;;;;;;4.30;2.93;;;;;;;;;;5059422;28;20294;-52
2023/07/20 01:56:34;;;;;;;3.03;2.73;;;;;;;;;;5059083;28;20169;-52
2023/07/20 01:59:00;;;;;;;6.53;3.93;;;;;;;;;;5063783;28;20228;-51
2023/07/20 02:01:28;;;;;;;3.13;2.83;;;;;;;;;;5047704;28;20538;-53
2023/07/20 02:03:54;;;;;;;4.43;3.53;;;;;;;;;;5059747;28;20185;-50
2023/07/20 02:06:20;;;;;;;4.17;3.27;;;;;;;;;;5061769;28;20690;-52
2023/07/20 02:08:46;;;;;;;4.03;3.63;;;;;;;;;;5063581;28;20235;-52
2023/07/20 02:11:12;;;;;;;4.43;3.23;;;;;;;;;;5060407;28;20208;-53
2023/07/20 02:13:38;;;;;;;3.27;2.97;;;;;;;;;;5057710;28;20202;-52
2023/07/20 02:16:05;;;;;;;4.13;3.13;;;;;;;;;;5065051;28;20705;-53
2023/07/20 02:18:31;;;;;;;3.50;2.50;;;;;;;;;;5067032;28;20175;-52
2023/07/20 02:20:57;;;;;;;3.70;2.97;;;;;;;;;;5060077;28;20177;-52
2023/07/20 02:23:23;;;;;;;3.03;2.50;;;;;;;;;;5062940;28;20266;-52
2023/07/20 02:25:49;;;;;;;4.00;3.00;;;;;;;;;;5061335;28;20181;-52
2023/07/20 02:28:15;;;;;;;2.90;2.67;;;;;;;;;;5067685;28;20204;-53
2023/07/20 02:30:41;;;;;;;3.30;3.00;;;;;;;;;;5061695;28;20181;-52
2023/07/20 02:33:08;;;;;;;3.00;2.70;;;;;;;;;;5063675;28;20291;-52
2023/07/20 02:35:34;;;;;;;3.23;2.70;;;;;;;;;;5042174;28;20177;-52
2023/07/20 02:38:00;;;;;;;4.43;3.13;;;;;;;;;;5055347;28;20217;-53
2023/07/20 02:40:27;;;;;;;3.20;2.90;;;;;;;;;;5061414;28;20638;-52
2023/07/20 02:42:53;;;;;;;3.37;3.07;;;;;;;;;;5056929;28;20185;-52
2023/07/20 02:45:19;;;;;;;3.80;2.97;;;;;;;;;;5060929;28;20180;-53
2023/07/20 02:47:45;;;;;;;4.43;3.40;;;;;;;;;;5067357;28;20177;-53
2023/07/20 02:50:13;;;;;;;3.50;3.20;;;;;;;;;;5061322;28;20216;-53
2023/07/20 02:52:40;;;;;;;3.37;3.07;;;;;;;;;;5053254;28;20232;-53
2023/07/20 02:55:06;;;;;;;3.37;3.03;;;;;;;;;;5063572;28;20177;-52
2023/07/20 02:57:32;;;;;;;4.37;3.30;;;;;;;;;;5057138;28;20561;-52
2023/07/20 02:59:58;;;;;;;4.73;3.13;;;;;;;;;;5062887;28;20192;-52
2023/07/20 03:02:25;;;;;;;3.47;3.10;;;;;;;;;;5055542;28;20230;-53
2023/07/20 03:04:51;;;;;;;3.73;3.20;;;;;;;;;;5061763;28;20575;-52
2023/07/20 03:07:17;;;;;;;3.10;2.90;;;;;;;;;;5061856;28;20641;-53
2023/07/20 03:09:44;;;;;;;4.60;3.27;;;;;;;;;;5066585;28;20177;-52
2023/07/20 03:12:10;;;;;;;3.80;3.40;;;;;;;;;;5062339;28;20272;-53
2023/07/20 03:14:36;;;;;;;3.60;3.10;;;;;;;;;;5065489;28;20215;-52
2023/07/20 03:17:02;;;;;;;4.50;3.30;;;;;;;;;;5062104;28;20184;-53
2023/07/20 03:19:28;;;;;;;4.27;3.60;;;;;;;;;;5061536;28;20181;-52
2023/07/20 03:21:54;;;;;;;4.00;2.90;;;;;;;;;;5055329;28;20661;-53
2023/07/20 03:24:20;;;;;;;4.83;4.37;;;;;;;;;;5054152;28;20187;-53
2023/07/20 03:26:47;;;;;;;4.03;3.07;;;;;;;;;;5056121;28;20187;-53
2023/07/20 03:29:13;;;;;;;4.70;3.27;;;;;;;;;;5064225;28;20190;-53
2023/07/20 03:31:39;;;;;;;7.00;6.50;;;;;;;;;;5064835;28;20236;-53
2023/07/20 03:34:06;;;;;;;5.70;3.63;;;;;;;;;;5058157;28;20201;-52
2023/07/20 03:36:32;;;;;;;4.77;3.53;;;;;;;;;;5065398;28;20241;-53
2023/07/20 03:38:58;;;;;;;5.03;3.03;;;;;;;;;;5062053;28;20231;-53
2023/07/20 03:41:24;;;;;;;3.60;3.30;;;;;;;;;;5060723;28;20594;-53
2023/07/20 03:43:50;;;;;;;4.93;3.33;;;;;;;;;;5063510;28;20180;-53
2023/07/20 03:46:17;;;;;;;4.03;3.63;;;;;;;;;;5042251;28;20719;-52
2023/07/20 03:48:43;;;;;;;3.10;2.90;;;;;;;;;;5063090;28;20190;-55
2023/07/20 03:51:09;;;;;;;3.90;3.37;;;;;;;;;;5062927;28;20524;-53
2023/07/20 03:53:35;;;;;;;5.20;3.80;;;;;;;;;;5057302;28;20198;-53
2023/07/20 03:56:01;;;;;;;3.73;3.43;;;;;;;;;;5067531;28;20523;-52
2023/07/20 03:58:27;;;;;;;4.50;3.13;;;;;;;;;;5065539;28;20574;-53
2023/07/20 04:00:53;;;;;;;4.03;3.27;;;;;;;;;;5069216;28;20452;-53
2023/07/20 04:03:20;;;;;;;6.87;4.53;;;;;;;;;;5066118;28;20183;-52
2023/07/20 04:05:46;;;;;;;4.30;3.70;;;;;;;;;;5066093;28;20224;-53
2023/07/20 04:08:12;;;;;;;4.30;3.57;;;;;;;;;;5069172;28;20188;-53
2023/07/20 04:10:39;;;;;;;4.37;3.67;;;;;;;;;;5065217;28;20427;-53
2023/07/20 04:13:05;;;;;;;3.13;2.83;;;;;;;;;;5060096;28;20201;-53
2023/07/20 04:15:31;;;;;;;4.60;3.30;;;;;;;;;;5063694;28;20215;-53
2023/07/20 04:17:58;;;;;;;3.70;3.30;;;;;;;;;;5069523;28;20225;-53
2023/07/20 04:20:25;;;;;;;4.97;3.63;;;;;;;;;;5066941;28;20639;-54
2023/07/20 04:22:51;;;;;;;5.83;4.43;;;;;;;;;;5061928;28;20650;-53
2023/07/20 04:25:18;;;;;;;4.50;4.13;;;;;;;;;;5069059;28;20180;-53
2023/07/20 04:27:45;;;;;;;3.90;3.50;;;;;;;;;;5062470;28;20184;-53
2023/07/20 04:30:12;;;;;;;5.10;3.73;;;;;;;;;;5067809;28;20224;-53
2023/07/20 04:32:43;;;;;;;7.07;4.33;;;;;;;;;;5061438;28;20216;-53
2023/07/20 04:35:10;;;;;;;4.73;3.73;;;;;;;;;;5060173;28;20200;-54
2023/07/20 04:37:36;;;;;;;5.27;3.83;;;;;;;;;;5067279;28;20259;-54
2023/07/20 04:40:03;;;;;;;5.30;3.80;;;;;;;;;;5062725;28;20238;-53
2023/07/20 04:42:29;;;;;;;5.07;3.83;;;;;;;;;;5066902;28;20249;-53
2023/07/20 04:44:56;;;;;;;3.93;3.53;;;;;;;;;;5068478;28;20180;-52
2023/07/20 04:47:22;;;;;;;4.67;4.13;;;;;;;;;;5069473;28;20173;-54
2023/07/20 04:49:49;;;;;;;4.17;3.67;;;;;;;;;;5039509;28;20174;-53
2023/07/20 04:52:15;;;;;;;4.23;3.83;;;;;;;;;;5047382;28;20328;-52
2023/07/20 04:54:41;;;;;;;4.70;4.20;;;;;;;;;;5066126;28;20600;-53
2023/07/20 04:57:13;;;;;;;4.83;4.13;;;;;;;;;;5065530;28;20188;-53
2023/07/20 04:59:39;;;;;;;4.97;4.37;;;;;;;;;;5065337;28;20644;-53
2023/07/20 05:02:06;;;;;;;4.77;4.33;;;;;;;;;;5063470;28;20172;-54
2023/07/20 05:04:34;;;;;;;5.20;4.00;;;;;;;;;;5065281;28;20258;-53
2023/07/20 05:07:00;;;;;;;4.43;4.03;;;;;;;;;;5067168;28;20263;-53
2023/07/20 05:09:26;;;;;;;4.10;3.70;;;;;;;;;;5063386;28;20214;-53
2023/07/20 05:11:53;;;;;;;4.30;3.90;;;;;;;;;;5065669;28;20188;-53
2023/07/20 05:14:19;;;;;;;4.63;4.00;;;;;;;;;;5065087;28;20196;-54
2023/07/20 05:16:45;;;;;;;4.53;4.13;;;;;;;;;;5060593;28;20629;-53
2023/07/20 05:19:11;;;;;;;4.87;4.37;;;;;;;;;;5055311;28;20637;-53
2023/07/20 05:21:38;;;;;;;4.50;4.10;;;;;;;;;;5063956;28;20180;-54
2023/07/20 05:24:04;;;;;;;6.70;4.57;;;;;;;;;;5065006;28;20189;-53
2023/07/20 05:26:32;;;;;;;4.43;4.00;;;;;;;;;;5056911;28;20187;-51
2023/07/20 05:28:59;;;;;;;5.20;4.63;;;;;;;;;;5065230;28;20227;-53
2023/07/20 05:31:26;;;;;;;6.97;4.30;;;;;;;;;;5058977;28;20185;-52
2023/07/20 05:33:52;;;;;;;5.80;4.43;;;;;;;;;;5061775;28;20703;-53
2023/07/20 05:36:19;;;;;;;6.87;4.73;;;;;;;;;;5065032;28;20173;-52
2023/07/20 05:38:45;;;;;;;5.17;4.17;;;;;;;;;;5061171;28;20226;-53
2023/07/20 05:41:11;;;;;;;5.60;5.03;;;;;;;;;;5065072;28;20187;-53
2023/07/20 05:43:37;;;;;;;5.73;4.80;;;;;;;;;;5067282;28;20191;-53
2023/07/20 05:46:05;;;;;;;5.33;4.83;;;;;;;;;;5068433;28;20178;-54
2023/07/20 05:48:32;;;;;;;5.93;5.13;;;;;;;;;;5062770;28;20186;-52
2023/07/20 05:50:59;;;;;;;5.07;4.63;;;;;;;;;;5060809;28;20191;-53
2023/07/20 05:53:25;;;;;;;5.97;4.77;;;;;;;;;;5061373;28;20593;-53
2023/07/20 05:55:55;;;;;;;5.83;4.60;;;;;;;;;;5032548;28;20189;-53
2023/07/20 05:58:22;;;;;;;6.37;5.07;;;;;;;;;;5067581;28;20234;-53
2023/07/20 06:00:49;;;;;;;4.83;4.33;;;;;;;;;;5064505;28;20292;-52
2023/07/20 06:03:16;;;;;;;4.27;3.87;;;;;;;;;;5065479;28;20576;-53
2023/07/20 06:05:43;;;;;;;4.83;4.33;;;;;;;;;;5067324;28;20819;-52
2023/07/20 06:08:09;;;;;;;4.57;3.83;;;;;;;;;;5063902;28;21036;-53
2023/07/20 06:10:35;;;;;;;4.53;4.13;;;;;;;;;;5066439;28;20223;-53
2023/07/20 06:13:01;;;;;;;5.40;4.20;;;;;;;;;;5063978;28;20323;-54
2023/07/20 06:15:28;;;;;;;5.93;4.40;;;;;;;;;;5061877;28;20293;-53
2023/07/20 06:17:57;;;;;;;4.77;4.17;;;;;;;;;;5060146;28;20644;-48
2023/07/20 06:20:23;;;;;;;5.00;4.60;;;;;;;;;;5057796;28;20184;-50
2023/07/20 06:22:50;;;;;;;6.23;4.20;;;;;;;;;;5062198;28;20673;-52
2023/07/20 06:25:16;;;;;;;7.60;7.00;;;;;;;;;;5054044;28;20576;-52
2023/07/20 06:27:43;;;;;;;9.57;6.70;;;;;;;;;;5059380;28;20606;-52
2023/07/20 06:30:09;;;;;;;6.77;5.80;;;;;;;;;;5057934;28;20174;-53
2023/07/20 06:32:36;;;;;;;8.10;6.93;;;;;;;;;;5067380;28;20172;-51
2023/07/20 06:35:02;;;;;;;7.73;7.10;;;;;;;;;;5067163;28;20173;-51
2023/07/20 06:37:28;;;;;;;8.00;7.07;;;;;;;;;;5062030;28;20211;-51
2023/07/20 06:39:54;;;;;;;7.93;7.03;;;;;;;;;;5064798;28;20707;-51
2023/07/20 06:42:20;;;;;;;6.73;6.20;;;;;;;;;;5063296;28;20528;-52
2023/07/20 06:44:46;;;;;;;5.93;5.43;;;;;;;;;;5059375;28;20200;-52
2023/07/20 06:47:12;;;;;;;6.03;5.63;;;;;;;;;;5056683;28;20717;-52
2023/07/20 06:49:39;;;;;;;6.33;4.60;;;;;;;;;;5062779;28;20169;-51
2023/07/20 06:52:05;;;;;;;5.43;4.63;;;;;;;;;;5062182;28;20279;-51
2023/07/20 06:54:32;;;;;;;5.27;4.87;;;;;;;;;;5059623;28;20209;-52
2023/07/20 06:56:58;;;;;;;5.47;4.97;;;;;;;;;;5062238;28;20181;-51
2023/07/20 06:59:24;;;;;;;7.93;6.87;;;;;;;;;;5059473;28;20185;-51
2023/07/20 07:01:50;;;;;;;8.93;7.60;;;;;;;;;;5059126;28;20455;-52
2023/07/20 07:04:16;;;;;;;9.57;8.67;;;;;;;;;;5063756;28;20216;-52
2023/07/20 07:06:44;;;;;;;10.47;9.47;;;;;;;;;;5040784;28;20192;-51
2023/07/20 07:09:10;;;;;;;14.63;11.40;;;;;;;;;;5058742;28;20185;-51
2023/07/20 07:11:37;;;;;;;14.00;12.80;;;;;;;;;;5058169;28;20432;-51
2023/07/20 07:14:03;;;;;;;14.40;12.93;;;;;;;;;;5063398;28;20290;-51
2023/07/20 07:16:30;;;;;;;18.43;16.57;;;;;;;;;;5044492;28;20196;-52
2023/07/20 07:18:56;;;;;;;19.43;17.33;;;;;;;;;;5061968;28;20173;-52
2023/07/20 07:21:22;;;;;;;17.40;15.70;;;;;;;;;;5054214;28;20178;-51
2023/07/20 07:23:49;;;;;;;17.47;15.67;;;;;;;;;;5045792;28;20186;-51
2023/07/20 07:26:16;;;;;;;16.23;14.73;;;;;;;;;;5062085;28;20643;-51
2023/07/20 07:28:43;;;;;;;19.60;17.80;;;;;;;;;;5063362;28;20188;-52
2023/07/20 07:31:10;;;;;;;18.63;16.73;;;;;;;;;;5055056;28;20185;-52
2023/07/20 07:33:36;;;;;;;20.77;18.77;;;;;;;;;;5065950;28;20200;-51
2023/07/20 07:36:03;;;;;;;20.40;18.40;;;;;;;;;;5068066;28;20177;-51
2023/07/20 07:38:29;;;;;;;19.50;17.40;;;;;;;;;;5066871;28;20176;-51
2023/07/20 07:40:56;;;;;;;17.30;15.73;;;;;;;;;;5057603;28;20580;-52
2023/07/20 07:43:23;;;;;;;11.43;10.33;;;;;;;;;;5060547;28;20189;-52
2023/07/20 07:45:50;;;;;;;11.93;10.67;;;;;;;;;;5042510;28;20181;-51
2023/07/20 07:48:17;;;;;;;11.10;9.63;;;;;;;;;;5055247;28;20181;-52
2023/07/20 07:50:43;;;;;;;11.07;9.67;;;;;;;;;;5061992;28;20465;-52
2023/07/20 07:53:10;;;;;;;8.33;7.07;;;;;;;;;;5062780;28;20598;-51
2023/07/20 07:55:37;;;;;;;7.83;7.13;;;;;;;;;;5064127;28;20176;-52
2023/07/20 07:58:03;;;;;;;6.80;4.90;;;;;;;;;;5043420;28;20228;-52
2023/07/20 08:00:30;;;;;;;4.43;4.03;;;;;;;;;;5060385;28;20185;-52
2023/07/20 08:02:56;;;;;;;5.97;3.20;;;;;;;;;;5045680;28;20180;-52
2023/07/20 08:05:22;;;;;;;3.27;2.97;;;;;;;;;;5055712;28;20702;-51
2023/07/20 08:07:48;;;;;;;3.40;3.07;;;;;;;;;;5062789;28;20716;-52
2023/07/20 08:10:15;;;;;;;2.97;2.77;;;;;;;;;;5061942;28;20878;-52
2023/07/20 08:12:41;;;;;;;3.10;2.80;;;;;;;;;;5059699;28;20185;-51
2023/07/20 08:15:07;;;;;;;3.43;2.90;;;;;;;;;;5064913;28;20652;-51
2023/07/20 08:17:34;;;;;;;5.03;3.03;;;;;;;;;;5065565;28;20508;-53
2023/07/20 08:20:05;;;;;;;3.10;2.80;;;;;;;;;;5062493;28;20181;-52
2023/07/20 08:22:33;;;;;;;3.30;2.77;;;;;;;;;;5056029;28;21069;-52
2023/07/20 08:24:59;;;;;;;2.53;2.20;;;;;;;;;;5063378;28;20201;-53
2023/07/20 08:27:26;;;;;;;3.43;2.60;;;;;;;;;;5067916;28;20189;-52
2023/07/20 08:29:53;;;;;;;2.77;2.57;;;;;;;;;;5060316;28;20229;-53
2023/07/20 08:32:19;;;;;;;3.50;2.73;;;;;;;;;;5060284;28;20225;-53
2023/07/20 08:34:46;;;;;;;3.40;3.10;;;;;;;;;;5067634;28;20209;-52
2023/07/20 08:37:12;;;;;;;3.00;2.60;;;;;;;;;;5068904;28;20190;-52
2023/07/20 08:39:39;;;;;;;2.80;2.60;;;;;;;;;;5063453;28;20646;-52
2023/07/20 08:42:06;;;;;;;2.80;2.60;;;;;;;;;;5055497;28;20632;-52
2023/07/20 08:44:34;;;;;;;2.87;2.67;;;;;;;;;;5064516;28;20180;-52
2023/07/20 08:47:03;;;;;;;4.40;2.37;;;;;;;;;;5061662;28;20183;-53
2023/07/20 08:49:30;;;;;;;2.60;2.40;;;;;;;;;;5059781;28;20188;-52
2023/07/20 08:51:56;;;;;;;3.00;2.40;;;;;;;;;;5036353;28;20228;-53
2023/07/20 08:54:22;;;;;;;2.80;2.60;;;;;;;;;;5060027;28;20260;-53
2023/07/20 08:56:49;;;;;;;2.73;2.50;;;;;;;;;;5058720;28;20194;-53
2023/07/20 08:59:17;;;;;;;3.10;2.47;;;;;;;;;;5062745;28;20230;-53
2023/07/20 09:01:45;;;;;;;2.27;2.07;;;;;;;;;;5042214;28;20178;-53
2023/07/20 09:04:12;;;;;;;2.23;2.03;;;;;;;;;;5059009;28;20577;-53
2023/07/20 09:06:38;;;;;;;3.30;2.13;;;;;;;;;;5045720;28;20968;-53
2023/07/20 09:09:05;;;;;;;2.40;2.20;;;;;;;;;;5062733;28;20661;-54
2023/07/20 09:11:31;;;;;;;2.03;1.93;;;;;;;;;;5062727;28;20685;-53
2023/07/20 09:14:04;;;;;;;2.80;2.10;;;;;;;;;;5062792;28;20233;-53
2023/07/20 09:16:31;;;;;;;2.50;1.90;;;;;;;;;;5057018;28;20177;-53
2023/07/20 09:19:00;;;;;;;2.03;1.83;;;;;;;;;;5058048;28;20181;-53
2023/07/20 09:21:31;;;;;;;2.43;1.90;;;;;;;;;;5056531;28;20207;-54
2023/07/20 09:23:58;;;;;;;2.90;2.27;;;;;;;;;;5037271;28;20186;-53
2023/07/20 09:26:25;;;;;;;2.93;1.83;;;;;;;;;;5049407;28;20191;-53
2023/07/20 09:28:55;;;;;;;2.67;2.03;;;;;;;;;;5041345;28;20198;-53
2023/07/20 09:31:22;;;;;;;2.20;2.00;;;;;;;;;;5056282;28;20205;-54
2023/07/20 09:33:49;;;;;;;2.53;1.90;;;;;;;;;;5059727;28;20214;-54
2023/07/20 09:36:16;;;;;;;2.83;2.10;;;;;;;;;;5058859;28;20266;-54
2023/07/20 09:38:43;;;;;;;2.30;2.00;;;;;;;;;;5053730;28;20182;-54
2023/07/20 09:41:14;;;;;;;2.40;2.17;;;;;;;;;;5062585;28;20205;-54
2023/07/20 09:43:40;;;;;;;2.10;1.80;;;;;;;;;;5061465;28;20184;-54
2023/07/20 09:46:07;;;;;;;1.73;1.63;;;;;;;;;;5054051;28;20196;-54
2023/07/20 09:48:34;;;;;;;3.20;2.10;;;;;;;;;;5062406;28;20274;-54
2023/07/20 09:51:00;;;;;;;1.83;1.70;;;;;;;;;;5058733;28;20244;-54
2023/07/20 09:53:27;;;;;;;1.80;1.70;;;;;;;;;;5051237;28;20295;-55
2023/07/20 09:55:54;;;;;;;1.73;1.63;;;;;;;;;;5051068;28;20640;-54
2023/07/20 09:58:20;;;;;;;2.60;1.70;;;;;;;;;;5057930;28;20232;-54
2023/07/20 10:00:50;;;;;;;1.73;1.60;;;;;;;;;;5038232;28;20245;-54
2023/07/20 10:03:20;;;;;;;2.53;1.80;;;;;;;;;;5055001;28;20196;-54
2023/07/20 10:05:55;;;;;;;1.77;1.67;;;;;;;;;;5051939;28;20239;-54
2023/07/20 10:08:24;;;;;;;2.27;1.80;;;;;;;;;;5049488;28;20688;-54
2023/07/20 10:10:50;;;;;;;2.53;1.70;;;;;;;;;;5062921;28;20240;-54
2023/07/20 10:13:22;;;;;;;1.63;1.53;;;;;;;;;;5052015;28;20197;-54
2023/07/20 10:15:54;;;;;;;1.37;1.30;;;;;;;;;;5056232;28;20216;-55
2023/07/20 10:18:31;;;;;;;1.90;1.80;;;;;;;;;;5058379;28;20192;-53
2023/07/20 10:21:00;;;;;;;1.60;1.50;;;;;;;;;;5056741;28;20229;-53
2023/07/20 10:23:27;;;;;;;2.43;1.57;;;;;;;;;;5055595;28;20177;-53
2023/07/20 10:25:53;;;;;;;1.60;1.50;;;;;;;;;;5054719;28;20327;-54
2023/07/20 10:28:20;;;;;;;1.83;1.70;;;;;;;;;;5062015;28;20651;-55
2023/07/20 10:30:47;;;;;;;3.10;1.40;;;;;;;;;;5036380;28;20271;-54
2023/07/20 10:33:14;;;;;;;1.70;1.60;;;;;;;;;;5052077;28;20507;-55
2023/07/20 10:36:00;;;;;;;1.63;1.53;;;;;;;;;;5057301;28;20184;-53
2023/07/20 10:38:43;;;;;;;2.20;1.57;;;;;;;;;;5062620;28;20581;-53
2023/07/20 10:41:25;;;;;;;2.83;1.30;;;;;;;;;;5037760;28;20181;-54
2023/07/20 10:43:58;;;;;;;1.97;1.73;;;;;;;;;;5057933;28;20237;-53
2023/07/20 10:46:46;;;;;;;2.87;1.47;;;;;;;;;;5053710;28;20181;-54
2023/07/20 10:49:14;;;;;;;1.63;1.50;;;;;;;;;;5046603;28;20208;-54
2023/07/20 10:51:48;;;;;;;1.60;1.50;;;;;;;;;;5052213;28;20232;-54
2023/07/20 10:54:17;;;;;;;2.90;1.63;;;;;;;;;;5036784;28;20679;-54
2023/07/20 10:56:45;;;;;;;1.97;1.80;;;;;;;;;;5062260;28;20503;-53
2023/07/20 10:59:20;;;;;;;1.70;1.60;;;;;;;;;;5058211;28;20696;-52
2023/07/20 11:01:50;;;;;;;2.00;1.80;;;;;;;;;;5054198;28;20238;-54
2023/07/20 11:04:21;;;;;;;2.13;1.80;;;;;;;;;;5061545;28;20366;-54
2023/07/20 11:06:55;;;;;;;3.67;1.83;;;;;;;;;;5053150;28;20192;-54
2023/07/20 11:09:26;;;;;;;2.00;1.90;;;;;;;;;;5040116;28;20187;-54
2023/07/20 11:12:09;;;;;;;1.60;1.50;;;;;;;;;;5044879;28;20647;-54
2023/07/20 11:14:40;;;;;;;1.60;1.50;;;;;;;;;;5060644;28;20269;-56
2023/07/20 11:17:20;;;;;;;1.73;1.50;;;;;;;;;;5055317;28;20173;-55
2023/07/20 11:19:49;;;;;;;1.60;1.50;;;;;;;;;;5059045;28;20246;-55
2023/07/20 11:22:17;;;;;;;1.93;1.70;;;;;;;;;;5054980;28;20165;-56
2023/07/20 11:24:48;;;;;;;2.73;1.63;;;;;;;;;;5059117;28;20191;-57
2023/07/20 11:27:14;;;;;;;1.50;1.40;;;;;;;;;;5043400;28;20267;-57
2023/07/20 11:29:40;;;;;;;2.33;1.63;;;;;;;;;;5063396;28;20267;-55
2023/07/20 11:32:07;;;;;;;1.97;1.87;;;;;;;;;;5052246;28;20399;-56
2023/07/20 11:34:34;;;;;;;1.70;1.60;;;;;;;;;;5055067;28;20205;-57
2023/07/20 11:37:00;;;;;;;1.50;1.40;;;;;;;;;;5053432;28;20212;-57
2023/07/20 11:39:28;;;;;;;1.70;1.40;;;;;;;;;;5060615;28;20180;-56
2023/07/20 11:41:57;;;;;;;1.60;1.50;;;;;;;;;;5056608;28;20739;-57
2023/07/20 11:44:27;;;;;;;2.27;1.50;;;;;;;;;;5051815;28;20189;-56
2023/07/20 11:47:10;;;;;;;2.60;1.57;;;;;;;;;;5053504;28;20318;-56
2023/07/20 11:49:40;;;;;;;1.20;1.20;;;;;;;;;;5056338;28;20181;-57
2023/07/20 11:52:07;;;;;;;1.87;1.63;;;;;;;;;;5062792;28;20192;-56
2023/07/20 11:54:35;;;;;;;1.53;1.43;;;;;;;;;;5060064;28;20204;-57
2023/07/20 11:57:01;;;;;;;3.33;1.63;;;;;;;;;;5056930;28;20183;-57
2023/07/20 11:59:28;;;;;;;1.90;1.80;;;;;;;;;;5055096;28;20483;-58
2023/07/20 12:01:55;;;;;;;1.30;1.20;;;;;;;;;;5031998;28;20188;-58
2023/07/20 12:04:23;;;;;;;2.13;2.03;;;;;;;;;;5056131;28;20270;-57
2023/07/20 12:06:50;;;;;;;1.60;1.50;;;;;;;;;;5059597;28;20195;-58
2023/07/20 12:09:17;;;;;;;1.57;1.47;;;;;;;;;;5057587;28;20663;-58
2023/07/20 12:11:47;;;;;;;1.33;1.33;;;;;;;;;;5059123;28;20238;-58
2023/07/20 12:14:13;;;;;;;1.93;1.50;;;;;;;;;;5064819;28;20716;-58
2023/07/20 12:16:39;;;;;;;1.60;1.50;;;;;;;;;;5066788;28;20183;-58
2023/07/20 12:19:14;;;;;;;2.27;1.40;;;;;;;;;;5061592;28;20649;-57
2023/07/20 12:21:45;;;;;;;3.00;1.50;;;;;;;;;;5066463;28;20189;-57
2023/07/20 12:24:12;;;;;;;2.13;1.40;;;;;;;;;;5062826;28;20253;-57
2023/07/20 12:26:38;;;;;;;1.93;1.83;;;;;;;;;;5059721;28;20617;-56
2023/07/20 12:29:05;;;;;;;2.50;1.30;;;;;;;;;;5038906;28;20184;-55
2023/07/20 12:31:37;;;;;;;1.90;1.70;;;;;;;;;;5066397;28;20189;-55
2023/07/20 12:34:04;;;;;;;1.57;1.47;;;;;;;;;;5060519;28;20198;-55
2023/07/20 12:36:31;;;;;;;1.70;1.60;;;;;;;;;;5062147;28;20184;-55
2023/07/20 12:38:58;;;;;;;1.60;1.50;;;;;;;;;;5059614;28;20575;-56
2023/07/20 12:41:24;;;;;;;3.83;1.80;;;;;;;;;;5042463;28;20259;-54
2023/07/20 12:43:51;;;;;;;1.83;1.70;;;;;;;;;;5058871;28;20244;-55
2023/07/20 12:46:17;;;;;;;1.77;1.50;;;;;;;;;;5064918;28;20244;-55
2023/07/20 12:48:44;;;;;;;1.40;1.30;;;;;;;;;;5061687;28;20675;-56
2023/07/20 12:51:12;;;;;;;1.87;1.77;;;;;;;;;;5064061;28;20191;-56
2023/07/20 12:53:39;;;;;;;2.00;1.80;;;;;;;;;;5060675;28;20238;-55
2023/07/20 12:56:05;;;;;;;4.03;2.17;;;;;;;;;;5057891;28;20216;-55
2023/07/20 12:58:31;;;;;;;3.63;1.63;;;;;;;;;;5056308;28;20266;-56
2023/07/20 13:00:58;;;;;;;2.73;1.80;;;;;;;;;;5061967;28;20189;-56
2023/07/20 13:03:25;;;;;;;2.73;1.53;;;;;;;;;;5064005;28;20211;-56
2023/07/20 13:05:51;;;;;;;1.93;1.70;;;;;;;;;;5047975;28;20220;-55
2023/07/20 13:08:19;;;;;;;2.27;1.73;;;;;;;;;;5065626;28;20928;-55
2023/07/20 13:10:45;;;;;;;2.10;1.93;;;;;;;;;;5064158;28;20227;-56
2023/07/20 13:13:12;;;;;;;1.77;1.67;;;;;;;;;;5058875;28;20205;-53
2023/07/20 13:15:43;;;;;;;1.60;1.50;;;;;;;;;;5062502;28;20542;-55
2023/07/20 13:18:09;;;;;;;1.70;1.60;;;;;;;;;;5066510;28;20172;-54
2023/07/20 13:20:36;;;;;;;2.27;1.70;;;;;;;;;;5063951;28;20191;-54
2023/07/20 13:23:03;;;;;;;2.07;1.93;;;;;;;;;;5059533;28;20513;-54
2023/07/20 13:25:29;;;;;;;2.00;1.77;;;;;;;;;;5060398;28;20272;-54
2023/07/20 13:27:56;;;;;;;2.60;1.97;;;;;;;;;;5056872;28;20672;-56
2023/07/20 13:30:22;;;;;;;1.80;1.50;;;;;;;;;;5056255;28;20546;-54
2023/07/20 13:32:49;;;;;;;2.67;2.17;;;;;;;;;;5057170;28;20189;-54
2023/07/20 13:35:16;;;;;;;1.63;1.53;;;;;;;;;;5056534;28;20172;-54
2023/07/20 13:37:42;;;;;;;2.30;1.50;;;;;;;;;;5057028;28;20663;-54
2023/07/20 13:40:13;;;;;;;1.83;1.70;;;;;;;;;;5061130;28;20928;-54
2023/07/20 13:42:40;;;;;;;1.63;1.53;;;;;;;;;;5060656;28;20208;-54
2023/07/20 13:45:07;;;;;;;1.90;1.80;;;;;;;;;;5060855;28;20271;-54
2023/07/20 13:47:33;;;;;;;1.70;1.60;;;;;;;;;;5061980;28;20512;-54
2023/07/20 13:50:00;;;;;;;1.90;1.80;;;;;;;;;;5063882;28;20216;-54
2023/07/20 13:52:27;;;;;;;1.60;1.50;;;;;;;;;;5058685;28;20218;-54
2023/07/20 13:54:53;;;;;;;2.57;1.70;;;;;;;;;;5065869;28;20208;-54
2023/07/20 13:57:19;;;;;;;2.23;2.07;;;;;;;;;;5065733;28;20239;-54
2023/07/20 13:59:45;;;;;;;3.07;2.87;;;;;;;;;;5057328;28;20259;-53
2023/07/20 14:02:12;;;;;;;2.67;2.47;;;;;;;;;;5063033;28;20189;-54
2023/07/20 14:04:38;;;;;;;1.60;1.50;;;;;;;;;;5056939;28;20235;-54
2023/07/20 14:07:06;;;;;;;1.70;1.60;;;;;;;;;;5061340;28;20177;-55
2023/07/20 14:09:32;;;;;;;1.70;1.60;;;;;;;;;;5061086;28;20703;-54
2023/07/20 14:11:59;;;;;;;2.20;1.60;;;;;;;;;;5064100;28;20195;-54
2023/07/20 14:14:25;;;;;;;1.70;1.60;;;;;;;;;;5066959;28;20247;-54
2023/07/20 14:16:52;;;;;;;2.50;1.50;;;;;;;;;;5052492;28;20648;-55
2023/07/20 14:19:19;;;;;;;2.07;1.50;;;;;;;;;;5048539;28;20172;-54
2023/07/20 14:21:45;;;;;;;1.57;1.47;;;;;;;;;;5035025;28;20272;-54
2023/07/20 14:24:11;;;;;;;1.50;1.40;;;;;;;;;;5063844;28;20382;-55
2023/07/20 14:26:38;;;;;;;2.47;1.50;;;;;;;;;;5067092;28;20184;-55
2023/07/20 14:29:04;;;;;;;1.53;1.43;;;;;;;;;;5058708;28;20264;-55
2023/07/20 14:31:30;;;;;;;1.63;1.43;;;;;;;;;;5056879;28;20630;-55
2023/07/20 14:33:57;;;;;;;1.70;1.60;;;;;;;;;;5060694;28;20207;-55
2023/07/20 14:36:23;;;;;;;1.60;1.50;;;;;;;;;;5057623;28;20165;-55
2023/07/20 14:38:49;;;;;;;2.27;1.60;;;;;;;;;;5054393;28;20211;-55
2023/07/20 14:41:16;;;;;;;1.73;1.63;;;;;;;;;;5064388;28;20176;-55